createdAt,value
2022-10-05T00:01:53.152Z,100.00
2022-10-05T00:04:24.155Z,100.00
2022-10-05T00:06:58.089Z,100.00
2022-10-05T00:09:27.293Z,100.00
2022-10-05T00:11:53.859Z,100.00
2022-10-05T00:14:22.288Z,100.00
2022-10-05T00:16:49.418Z,100.00
2022-10-05T00:19:30.967Z,100.00
2022-10-05T00:22:11.348Z,100.00
2022-10-05T00:24:38.166Z,100.00
2022-10-05T00:27:18.063Z,100.00
2022-10-05T00:29:45.451Z,100.00
2022-10-05T00:32:12.106Z,100.00
2022-10-05T00:34:39.204Z,100.00
2022-10-05T00:37:06.722Z,100.00
2022-10-05T00:39:36.183Z,100.00
2022-10-05T00:42:02.656Z,100.00
2022-10-05T00:44:51.129Z,100.00
2022-10-05T00:47:53.062Z,100.00
2022-10-05T00:50:46.929Z,100.00
2022-10-05T00:53:42.544Z,100.00
2022-10-05T00:56:23.873Z,100.00
2022-10-05T00:59:31.905Z,100.00
2022-10-05T01:02:39.968Z,100.00
2022-10-05T01:05:29.736Z,100.00
2022-10-05T01:08:21.137Z,100.00
2022-10-05T01:11:18.977Z,100.00
2022-10-05T01:14:12.376Z,100.00
2022-10-05T01:17:37.683Z,100.00
2022-10-05T01:20:27.261Z,100.00
2022-10-05T01:23:44.928Z,100.00
2022-10-05T01:26:25.038Z,100.00
2022-10-05T01:29:12.512Z,100.00
2022-10-05T01:32:17.347Z,100.00
2022-10-05T01:35:08.624Z,100.00
2022-10-05T01:38:00.366Z,100.00
2022-10-05T01:40:36.548Z,100.00
2022-10-05T01:43:26.368Z,100.00
2022-10-05T01:45:56.102Z,100.00
2022-10-05T01:48:44.275Z,100.00
2022-10-05T01:51:37.827Z,100.00
2022-10-05T01:54:19.514Z,100.00
2022-10-05T01:57:11.021Z,100.00
2022-10-05T01:59:59.597Z,100.00
2022-10-05T02:02:29.169Z,100.00
2022-10-05T02:05:06.610Z,100.00
2022-10-05T02:08:08.238Z,100.00
2022-10-05T02:10:43.516Z,100.00
2022-10-05T02:13:15.957Z,100.00
2022-10-05T02:15:48.544Z,100.00
2022-10-05T02:18:23.285Z,100.00
2022-10-05T02:20:52.924Z,100.00
2022-10-05T02:23:24.083Z,100.00
2022-10-05T02:25:53.118Z,100.00
2022-10-05T02:28:28.537Z,100.00
2022-10-05T02:31:01.536Z,100.00
2022-10-05T02:33:31.080Z,100.00
2022-10-05T02:36:16.199Z,100.00
2022-10-05T02:39:26.613Z,100.00
2022-10-05T02:42:08.616Z,100.00
2022-10-05T02:44:55.202Z,100.00
2022-10-05T02:47:51.700Z,100.00
2022-10-05T02:50:27.255Z,100.00
2022-10-05T02:53:10.888Z,100.00
2022-10-05T02:55:54.001Z,100.00
2022-10-05T02:58:24.909Z,100.00
2022-10-05T03:01:26.320Z,100.00
2022-10-05T03:04:04.289Z,100.00
2022-10-05T03:06:38.357Z,100.00
2022-10-05T03:09:07.663Z,100.00
2022-10-05T03:12:10.114Z,100.00
2022-10-05T03:15:08.671Z,100.00
2022-10-05T03:17:49.506Z,100.00
2022-10-05T03:20:16.005Z,100.00
2022-10-05T03:22:55.968Z,100.00
2022-10-05T03:25:31.586Z,100.00
2022-10-05T03:28:06.558Z,100.00
2022-10-05T03:30:53.202Z,100.00
2022-10-05T03:33:56.314Z,100.00
2022-10-05T03:36:33.173Z,100.00
2022-10-05T03:39:02.561Z,100.00
2022-10-05T03:41:51.333Z,100.00
2022-10-05T03:44:27.841Z,100.00
2022-10-05T03:47:13.186Z,100.00
2022-10-05T03:50:04.603Z,100.00
2022-10-05T03:52:57.967Z,100.00
2022-10-05T03:55:42.598Z,100.00
2022-10-05T03:58:50.716Z,100.00
2022-10-05T04:01:22.621Z,100.00
2022-10-05T04:03:58.283Z,100.00
2022-10-05T04:06:28.808Z,100.00
2022-10-05T04:09:14.063Z,100.00
2022-10-05T04:11:49.018Z,100.00
2022-10-05T04:14:34.081Z,100.00
2022-10-05T04:17:25.783Z,100.00
2022-10-05T04:20:01.069Z,100.00
2022-10-05T04:22:37.277Z,100.00
2022-10-05T04:25:17.663Z,100.00
2022-10-05T04:27:47.843Z,100.00
2022-10-05T04:30:23.898Z,100.00
2022-10-05T04:32:57.362Z,100.00
2022-10-05T04:35:35.663Z,100.00
2022-10-05T04:38:39.079Z,100.00
2022-10-05T04:41:20.818Z,100.00
2022-10-05T04:43:53.430Z,100.00
2022-10-05T04:46:30.792Z,100.00
2022-10-05T04:49:06.569Z,100.00
2022-10-05T04:51:51.514Z,100.00
2022-10-05T04:54:56.804Z,100.00
2022-10-05T04:57:31.638Z,100.00
2022-10-05T05:00:32.213Z,100.00
2022-10-05T05:03:13.034Z,100.00
2022-10-05T05:06:16.003Z,100.00
2022-10-05T05:09:17.425Z,100.00
2022-10-05T05:12:02.149Z,100.00
2022-10-05T05:14:55.369Z,100.00
2022-10-05T05:17:49.925Z,100.00
2022-10-05T05:20:34.754Z,100.00
2022-10-05T05:23:20.526Z,100.00
2022-10-05T05:26:05.387Z,100.00
2022-10-05T05:28:34.824Z,100.00
2022-10-05T05:31:16.059Z,100.00
2022-10-05T05:34:04.099Z,100.00
2022-10-05T05:36:46.069Z,100.00
2022-10-05T05:40:07.849Z,100.00
2022-10-05T05:42:38.160Z,100.00
2022-10-05T05:45:49.006Z,100.00
2022-10-05T05:48:24.286Z,100.00
2022-10-05T05:51:04.094Z,100.00
2022-10-05T05:53:48.077Z,100.00
2022-10-05T05:56:19.443Z,100.00
2022-10-05T05:58:54.449Z,100.00
2022-10-05T06:01:34.239Z,100.00
2022-10-05T06:04:26.705Z,100.00
2022-10-05T06:06:56.847Z,100.00
2022-10-05T06:09:45.430Z,100.00
2022-10-05T06:12:23.039Z,100.00
2022-10-05T06:14:53.104Z,100.00
2022-10-05T06:17:32.030Z,100.00
2022-10-05T06:20:05.490Z,100.00
2022-10-05T06:22:37.371Z,100.00
2022-10-05T06:25:13.088Z,100.00
2022-10-05T06:28:00.002Z,100.00
2022-10-05T06:30:37.798Z,100.00
2022-10-05T06:33:07.557Z,100.00
2022-10-05T06:36:00.680Z,100.00
2022-10-05T06:38:33.314Z,100.00
2022-10-05T06:41:35.566Z,100.00
2022-10-05T06:44:21.214Z,100.00
2022-10-05T06:47:12.440Z,100.00
2022-10-05T06:49:45.055Z,100.00
2022-10-05T06:52:41.867Z,100.00
2022-10-05T06:55:47.120Z,98.99
2022-10-05T06:58:16.551Z,91.28
2022-10-05T07:00:52.714Z,88.84
2022-10-05T07:03:38.456Z,85.39
2022-10-05T07:06:16.690Z,83.66
2022-10-05T07:08:49.539Z,88.60
2022-10-05T07:11:57.364Z,88.53
2022-10-05T07:14:51.773Z,92.31
2022-10-05T07:17:32.874Z,89.78
2022-10-05T07:20:08.783Z,87.18
2022-10-05T07:22:50.148Z,91.72
2022-10-05T07:25:32.181Z,96.68
2022-10-05T07:28:23.343Z,91.12
2022-10-05T07:31:09.624Z,88.90
2022-10-05T07:33:47.529Z,91.10
2022-10-05T07:36:45.029Z,90.60
2022-10-05T07:39:42.043Z,89.27
2022-10-05T07:42:28.031Z,90.10
2022-10-05T07:45:17.140Z,87.62
2022-10-05T07:48:15.544Z,87.72
2022-10-05T07:51:00.099Z,87.95
2022-10-05T07:53:30.469Z,87.66
2022-10-05T07:56:00.140Z,89.25
2022-10-05T07:58:34.504Z,88.17
2022-10-05T08:01:09.893Z,89.41
2022-10-05T08:03:52.382Z,90.94
2022-10-05T08:06:37.712Z,90.71
2022-10-05T08:09:12.867Z,91.02
2022-10-05T08:11:52.161Z,90.92
2022-10-05T08:14:37.894Z,86.86
2022-10-05T08:17:16.464Z,84.84
2022-10-05T08:20:03.657Z,88.16
2022-10-05T08:22:40.367Z,86.31
2022-10-05T08:25:21.150Z,85.63
2022-10-05T08:28:06.585Z,83.21
2022-10-05T08:30:40.137Z,84.19
2022-10-05T08:33:12.695Z,86.58
2022-10-05T08:35:44.965Z,82.94
2022-10-05T08:38:24.879Z,79.72
2022-10-05T08:40:54.711Z,82.20
2022-10-05T08:44:00.907Z,79.65
2022-10-05T08:46:59.903Z,81.80
2022-10-05T08:49:50.999Z,78.81
2022-10-05T08:52:28.861Z,77.13
2022-10-05T08:55:07.575Z,75.01
2022-10-05T08:57:59.878Z,75.20
2022-10-05T09:00:48.899Z,75.33
2022-10-05T09:03:20.953Z,80.14
2022-10-05T09:06:15.626Z,82.07
2022-10-05T09:09:03.375Z,82.32
2022-10-05T09:11:53.202Z,79.70
2022-10-05T09:14:39.208Z,78.72
2022-10-05T09:17:18.633Z,75.08
2022-10-05T09:19:48.098Z,75.40
2022-10-05T09:22:23.644Z,74.34
2022-10-05T09:24:57.633Z,74.24
2022-10-05T09:28:07.225Z,73.42
2022-10-05T09:30:53.356Z,73.53
2022-10-05T09:33:38.950Z,70.55
2022-10-05T09:36:12.463Z,69.68
2022-10-05T09:39:07.072Z,68.69
2022-10-05T09:41:58.439Z,68.55
2022-10-05T09:44:34.485Z,71.16
2022-10-05T09:47:29.176Z,69.58
2022-10-05T09:50:17.841Z,66.12
2022-10-05T09:53:19.681Z,69.07
2022-10-05T09:56:13.283Z,68.31
2022-10-05T09:58:46.238Z,65.78
2022-10-05T10:01:34.360Z,64.87
2022-10-05T10:04:23.337Z,60.58
2022-10-05T10:07:25.397Z,64.27
2022-10-05T10:10:30.616Z,64.20
2022-10-05T10:13:29.479Z,63.91
2022-10-05T10:16:11.146Z,64.09
2022-10-05T10:19:12.783Z,64.20
2022-10-05T10:22:01.944Z,62.96
2022-10-05T10:24:53.962Z,63.17
2022-10-05T10:27:36.279Z,59.93
2022-10-05T10:30:28.397Z,57.51
2022-10-05T10:33:05.588Z,53.05
2022-10-05T10:35:38.083Z,59.58
2022-10-05T10:38:30.507Z,56.03
2022-10-05T10:41:34.502Z,53.88
2022-10-05T10:44:58.987Z,56.56
2022-10-05T10:47:49.916Z,56.67
2022-10-05T10:51:00.994Z,54.99
2022-10-05T10:54:15.543Z,62.12
2022-10-05T10:57:03.228Z,62.21
2022-10-05T11:00:20.500Z,64.61
2022-10-05T11:03:14.382Z,64.11
2022-10-05T11:06:04.905Z,62.33
2022-10-05T11:08:46.531Z,58.25
2022-10-05T11:11:28.349Z,58.22
2022-10-05T11:14:14.544Z,57.01
2022-10-05T11:17:05.568Z,55.88
2022-10-05T11:20:04.010Z,53.65
2022-10-05T11:22:54.486Z,51.72
2022-10-05T11:25:35.371Z,50.35
2022-10-05T11:28:27.561Z,48.05
2022-10-05T11:31:06.625Z,50.75
2022-10-05T11:34:01.390Z,48.44
2022-10-05T11:36:44.471Z,50.53
2022-10-05T11:39:21.736Z,48.71
2022-10-05T11:41:57.301Z,49.57
2022-10-05T11:44:51.843Z,49.41
2022-10-05T11:47:28.813Z,49.33
2022-10-05T11:50:14.243Z,51.74
2022-10-05T11:53:02.001Z,47.67
2022-10-05T11:55:42.659Z,48.68
2022-10-05T11:58:20.444Z,49.96
2022-10-05T12:00:54.605Z,50.48
2022-10-05T12:03:40.140Z,50.24
2022-10-05T12:06:39.738Z,49.57
2022-10-05T12:09:31.075Z,47.25
2022-10-05T12:12:18.155Z,47.80
2022-10-05T12:14:51.573Z,48.57
2022-10-05T12:17:38.661Z,48.08
2022-10-05T12:20:17.087Z,47.56
2022-10-05T12:23:17.762Z,50.05
2022-10-05T12:26:00.305Z,52.12
2022-10-05T12:28:42.819Z,52.42
2022-10-05T12:31:40.046Z,53.70
2022-10-05T12:34:18.615Z,52.23
2022-10-05T12:37:03.916Z,55.58
2022-10-05T12:39:48.795Z,56.80
2022-10-05T12:42:24.699Z,55.41
2022-10-05T12:45:18.707Z,55.88
2022-10-05T12:48:07.394Z,56.89
2022-10-05T12:50:51.222Z,59.98
2022-10-05T12:53:42.912Z,59.81
2022-10-05T12:56:16.286Z,58.78
2022-10-05T12:59:10.872Z,59.27
2022-10-05T13:01:48.346Z,59.35
2022-10-05T13:04:33.651Z,60.46
2022-10-05T13:07:21.584Z,59.46
2022-10-05T13:10:19.320Z,62.25
2022-10-05T13:13:01.117Z,59.08
2022-10-05T13:15:34.633Z,61.04
2022-10-05T13:18:18.702Z,60.70
2022-10-05T13:20:48.928Z,62.41
2022-10-05T13:23:53.727Z,59.35
2022-10-05T13:26:29.645Z,62.69
2022-10-05T13:29:03.339Z,59.14
2022-10-05T13:31:54.348Z,58.61
2022-10-05T13:34:42.676Z,58.25
2022-10-05T13:37:09.169Z,56.66
2022-10-05T13:40:14.562Z,57.75
2022-10-05T13:42:48.270Z,56.68
2022-10-05T13:45:17.847Z,55.96
2022-10-05T13:47:58.856Z,54.51
2022-10-05T13:50:33.402Z,54.60
2022-10-05T13:53:32.987Z,55.74
2022-10-05T13:56:08.256Z,56.97
2022-10-05T13:59:04.923Z,57.88
2022-10-05T14:01:41.443Z,57.39
2022-10-05T14:04:27.441Z,59.84
2022-10-05T14:06:54.163Z,58.04
2022-10-05T14:09:20.670Z,58.62
2022-10-05T14:11:53.908Z,58.61
2022-10-05T14:14:26.531Z,62.02
2022-10-05T14:16:56.445Z,60.59
2022-10-05T14:19:30.337Z,60.86
2022-10-05T14:22:12.215Z,62.21
2022-10-05T14:24:50.676Z,62.70
2022-10-05T14:27:27.380Z,62.77
2022-10-05T14:30:00.582Z,64.38
2022-10-05T14:32:31.951Z,64.66
2022-10-05T14:35:07.737Z,64.72
2022-10-05T14:37:49.339Z,64.24
2022-10-05T14:40:22.114Z,62.86
2022-10-05T14:42:49.969Z,62.86
2022-10-05T14:45:20.515Z,65.47
2022-10-05T14:47:52.784Z,65.63
2022-10-05T14:50:29.807Z,65.36
2022-10-05T14:53:17.395Z,65.40
2022-10-05T14:55:55.388Z,65.32
2022-10-05T14:58:46.636Z,65.86
2022-10-05T15:01:32.723Z,67.52
2022-10-05T15:04:30.578Z,68.09
2022-10-05T15:07:28.559Z,68.49
2022-10-05T15:09:55.054Z,68.67
2022-10-05T15:12:31.972Z,70.49
2022-10-05T15:15:32.044Z,70.19
2022-10-05T15:18:06.762Z,72.45
2022-10-05T15:20:39.242Z,76.57
2022-10-05T15:23:38.308Z,75.97
2022-10-05T15:26:26.291Z,75.27
2022-10-05T15:29:01.828Z,75.32
2022-10-05T15:31:40.637Z,77.55
2022-10-05T15:34:33.920Z,76.64
2022-10-05T15:37:09.915Z,78.81
2022-10-05T15:39:44.233Z,78.82
2022-10-05T15:42:14.668Z,77.97
2022-10-05T15:45:09.068Z,80.51
2022-10-05T15:48:07.611Z,83.38
2022-10-05T15:50:57.178Z,83.52
2022-10-05T15:53:37.781Z,85.66
2022-10-05T15:56:13.204Z,84.35
2022-10-05T15:58:51.282Z,87.10
2022-10-05T16:01:47.247Z,85.98
2022-10-05T16:04:23.255Z,87.15
2022-10-05T16:07:16.470Z,88.63
2022-10-05T16:10:15.524Z,89.60
2022-10-05T16:13:09.339Z,89.05
2022-10-05T16:15:39.190Z,89.95
2022-10-05T16:18:55.432Z,91.21
2022-10-05T16:21:32.229Z,91.71
2022-10-05T16:24:24.398Z,92.24
2022-10-05T16:27:06.514Z,92.81
2022-10-05T16:29:33.042Z,93.72
2022-10-05T16:32:05.778Z,94.19
2022-10-05T16:34:49.373Z,95.19
2022-10-05T16:37:31.371Z,96.13
2022-10-05T16:40:06.930Z,96.75
2022-10-05T16:42:46.636Z,97.78
2022-10-05T16:45:47.843Z,98.36
2022-10-05T16:48:27.410Z,98.93
2022-10-05T16:51:07.878Z,99.97
2022-10-05T16:53:59.177Z,100.00
2022-10-05T16:56:34.226Z,100.00
2022-10-05T16:59:30.108Z,100.00
2022-10-05T17:02:24.474Z,100.00
2022-10-05T17:05:10.326Z,100.00
2022-10-05T17:07:36.869Z,100.00
2022-10-05T17:10:28.496Z,100.00
2022-10-05T17:13:33.010Z,100.00
2022-10-05T17:16:37.518Z,100.00
2022-10-05T17:19:46.624Z,100.00
2022-10-05T17:22:24.249Z,100.00
2022-10-05T17:25:24.314Z,100.00
2022-10-05T17:27:53.003Z,100.00
2022-10-05T17:30:23.595Z,100.00
2022-10-05T17:33:04.603Z,100.00
2022-10-05T17:35:50.886Z,100.00
2022-10-05T17:38:41.863Z,100.00
2022-10-05T17:41:25.062Z,100.00
2022-10-05T17:44:06.891Z,100.00
2022-10-05T17:46:46.664Z,100.00
2022-10-05T17:49:38.157Z,100.00
2022-10-05T17:52:40.862Z,100.00
2022-10-05T17:55:34.199Z,100.00
2022-10-05T17:58:23.992Z,100.00
2022-10-05T18:00:56.993Z,100.00
2022-10-05T18:03:41.515Z,100.00
2022-10-05T18:06:26.345Z,100.00
2022-10-05T18:09:21.896Z,100.00
2022-10-05T18:12:26.976Z,100.00
2022-10-05T18:15:36.405Z,100.00
2022-10-05T18:18:54.737Z,100.00
2022-10-05T18:21:30.482Z,100.00
2022-10-05T18:23:58.765Z,100.00
2022-10-05T18:27:07.115Z,100.00
2022-10-05T18:30:05.861Z,100.00
2022-10-05T18:32:47.823Z,100.00
2022-10-05T18:35:28.067Z,100.00
2022-10-05T18:38:31.964Z,100.00
2022-10-05T18:40:59.195Z,100.00
2022-10-05T18:43:49.018Z,100.00
2022-10-05T18:46:15.568Z,100.00
2022-10-05T18:48:54.250Z,100.00
2022-10-05T18:51:54.688Z,100.00
2022-10-05T18:54:39.424Z,100.00
2022-10-05T18:57:50.898Z,100.00
2022-10-05T19:00:25.223Z,100.00
2022-10-05T19:03:00.788Z,100.00
2022-10-05T19:05:52.129Z,100.00
2022-10-05T19:08:50.853Z,100.00
2022-10-05T19:11:55.219Z,100.00
2022-10-05T19:14:32.197Z,100.00
2022-10-05T19:17:25.675Z,100.00
2022-10-05T19:19:58.446Z,100.00
2022-10-05T19:22:51.132Z,100.00
2022-10-05T19:25:32.878Z,100.00
2022-10-05T19:28:18.047Z,100.00
2022-10-05T19:31:30.040Z,100.00
2022-10-05T19:34:28.545Z,100.00
2022-10-05T19:37:08.239Z,100.00
2022-10-05T19:39:43.083Z,100.00
2022-10-05T19:42:31.260Z,100.00
2022-10-05T19:45:12.851Z,100.00
2022-10-05T19:47:51.645Z,100.00
2022-10-05T19:50:27.539Z,100.00
2022-10-05T19:53:10.339Z,100.00
2022-10-05T19:55:39.609Z,100.00
2022-10-05T19:58:18.593Z,100.00
2022-10-05T20:00:57.534Z,100.00
2022-10-05T20:03:29.807Z,100.00
2022-10-05T20:06:01.263Z,100.00
2022-10-05T20:08:39.340Z,100.00
2022-10-05T20:11:11.908Z,100.00
2022-10-05T20:13:43.664Z,100.00
2022-10-05T20:16:28.932Z,100.00
2022-10-05T20:19:14.280Z,100.00
2022-10-05T20:21:45.603Z,100.00
2022-10-05T20:24:15.123Z,100.00
2022-10-05T20:27:03.529Z,100.00
2022-10-05T20:29:51.254Z,100.00
2022-10-05T20:32:18.193Z,100.00
2022-10-05T20:34:49.338Z,100.00
2022-10-05T20:37:18.443Z,100.00
2022-10-05T20:39:45.444Z,100.00
2022-10-05T20:42:12.035Z,100.00
2022-10-05T20:44:38.734Z,100.00
2022-10-05T20:47:09.553Z,100.00
2022-10-05T20:49:37.790Z,100.00
2022-10-05T20:52:05.946Z,100.00
2022-10-05T20:54:32.745Z,100.00
2022-10-05T20:56:59.399Z,100.00
2022-10-05T20:59:26.769Z,100.00
2022-10-05T21:01:53.474Z,100.00
2022-10-05T21:04:22.682Z,100.00
2022-10-05T21:06:49.675Z,100.00
2022-10-05T21:09:21.325Z,100.00
2022-10-05T21:11:50.142Z,100.00
2022-10-05T21:14:17.115Z,100.00
2022-10-05T21:16:45.803Z,100.00
2022-10-05T21:19:14.352Z,100.00
2022-10-05T21:21:42.684Z,100.00
2022-10-05T21:24:11.243Z,100.00
2022-10-05T21:26:37.783Z,100.00
2022-10-05T21:29:07.875Z,100.00
2022-10-05T21:31:38.310Z,100.00
2022-10-05T21:34:04.980Z,100.00
2022-10-05T21:36:32.567Z,100.00
2022-10-05T21:38:59.618Z,100.00
2022-10-05T21:41:26.795Z,100.00
2022-10-05T21:43:53.644Z,100.00
2022-10-05T21:46:22.792Z,100.00
2022-10-05T21:48:49.901Z,100.00
2022-10-05T21:51:18.863Z,100.00
2022-10-05T21:53:56.855Z,100.00
2022-10-05T21:56:28.190Z,100.00
2022-10-05T21:58:55.122Z,100.00
2022-10-05T22:01:22.844Z,100.00
2022-10-05T22:03:49.894Z,100.00
2022-10-05T22:06:16.549Z,100.00
2022-10-05T22:08:43.117Z,100.00
2022-10-05T22:11:17.875Z,100.00
2022-10-05T22:13:49.396Z,100.00
2022-10-05T22:16:18.308Z,100.00
2022-10-05T22:18:45.458Z,100.00
2022-10-05T22:21:13.999Z,100.00
2022-10-05T22:23:42.132Z,100.00
2022-10-05T22:26:11.182Z,100.00
2022-10-05T22:28:39.869Z,100.00
2022-10-05T22:31:09.611Z,100.00
2022-10-05T22:33:37.231Z,100.00
2022-10-05T22:36:05.595Z,100.00
2022-10-05T22:38:32.343Z,100.00
2022-10-05T22:40:59.006Z,100.00
2022-10-05T22:43:27.140Z,100.00
2022-10-05T22:45:54.650Z,100.00
2022-10-05T22:48:21.447Z,100.00
2022-10-05T22:50:48.889Z,100.00
2022-10-05T22:53:15.675Z,100.00
2022-10-05T22:59:22.966Z,100.00
2022-10-05T23:01:49.577Z,100.00
2022-10-05T23:04:16.198Z,100.00
2022-10-05T23:06:42.799Z,100.00
2022-10-05T23:09:09.318Z,100.00
2022-10-05T23:11:35.846Z,100.00
2022-10-05T23:14:02.415Z,100.00
2022-10-05T23:16:29.825Z,100.00
2022-10-05T23:18:56.580Z,100.00
2022-10-05T23:21:25.223Z,100.00
2022-10-05T23:23:51.887Z,100.00
2022-10-05T23:26:23.878Z,100.00
2022-10-05T23:28:50.827Z,100.00
2022-10-05T23:31:23.291Z,100.00
2022-10-05T23:33:50.003Z,100.00
2022-10-05T23:36:19.370Z,100.00
2022-10-05T23:38:46.259Z,100.00
2022-10-05T23:41:12.994Z,100.00
2022-10-05T23:43:40.208Z,100.00
2022-10-05T23:46:07.967Z,100.00
2022-10-05T23:48:38.002Z,100.00
2022-10-05T23:51:10.766Z,100.00
2022-10-05T23:53:37.905Z,100.00
2022-10-05T23:56:04.824Z,100.00
2022-10-05T23:58:31.972Z,100.00
